createdAt,value
2023-03-05T00:01:50.190Z,5.31
2023-03-05T00:04:16.971Z,5.28
2023-03-05T00:06:43.893Z,5.18
2023-03-05T00:09:10.856Z,5.24
2023-03-05T00:11:37.386Z,5.23
2023-03-05T00:14:04.470Z,5.26
2023-03-05T00:16:31.329Z,5.21
2023-03-05T00:18:59.506Z,5.19
2023-03-05T00:21:31.517Z,5.25
2023-03-05T00:23:59.779Z,5.22
2023-03-05T00:26:26.598Z,5.15
2023-03-05T00:28:54.519Z,5.18
2023-03-05T00:31:24.090Z,5.11
2023-03-05T00:33:55.695Z,5.11
2023-03-05T00:36:23.857Z,5.15
2023-03-05T00:38:50.796Z,5.12
2023-03-05T00:41:17.360Z,5.07
2023-03-05T00:43:44.028Z,5.07
2023-03-05T00:46:11.233Z,5.04
2023-03-05T00:48:37.880Z,5.02
2023-03-05T00:51:04.878Z,5.02
2023-03-05T00:53:31.580Z,5.00
2023-03-05T00:55:59.084Z,4.99
2023-03-05T00:58:25.868Z,4.97
2023-03-05T01:00:52.424Z,4.95
2023-03-05T01:03:19.356Z,4.96
2023-03-05T01:05:46.194Z,4.97
2023-03-05T01:08:12.740Z,4.97
2023-03-05T01:10:39.501Z,4.96
2023-03-05T01:13:06.029Z,4.96
2023-03-05T01:15:32.628Z,4.97
2023-03-05T01:17:59.161Z,4.96
2023-03-05T01:20:26.804Z,4.98
2023-03-05T01:22:53.419Z,4.95
2023-03-05T01:25:20.515Z,4.93
2023-03-05T01:27:47.265Z,4.95
2023-03-05T01:30:14.987Z,4.99
2023-03-05T01:32:41.573Z,4.97
2023-03-05T01:35:09.282Z,4.97
2023-03-05T01:37:35.821Z,4.94
2023-03-05T01:40:02.466Z,4.94
2023-03-05T01:42:28.968Z,4.92
2023-03-05T01:45:01.139Z,4.89
2023-03-05T01:47:27.730Z,4.86
2023-03-05T01:49:54.398Z,4.80
2023-03-05T01:52:23.358Z,4.76
2023-03-05T01:54:56.707Z,4.80
2023-03-05T01:57:30.420Z,4.83
2023-03-05T02:00:02.079Z,4.82
2023-03-05T02:02:40.934Z,4.81
2023-03-05T02:05:12.986Z,4.82
2023-03-05T02:07:40.146Z,4.80
2023-03-05T02:10:21.866Z,4.78
2023-03-05T02:12:50.141Z,4.77
2023-03-05T02:15:17.731Z,4.76
2023-03-05T02:17:44.990Z,4.79
2023-03-05T02:20:23.200Z,4.76
2023-03-05T02:22:49.930Z,4.69
2023-03-05T02:25:24.141Z,4.74
2023-03-05T02:28:05.672Z,4.73
2023-03-05T02:30:32.477Z,4.73
2023-03-05T02:32:59.218Z,4.69
2023-03-05T02:35:27.129Z,4.69
2023-03-05T02:37:53.710Z,4.68
2023-03-05T02:40:20.388Z,4.66
2023-03-05T02:42:47.296Z,4.67
2023-03-05T02:45:15.818Z,4.66
2023-03-05T02:47:42.808Z,4.62
2023-03-05T02:50:11.136Z,4.60
2023-03-05T02:52:38.892Z,4.62
2023-03-05T02:55:09.543Z,4.59
2023-03-05T02:57:37.253Z,4.58
2023-03-05T03:00:05.445Z,4.60
2023-03-05T03:02:32.297Z,4.60
2023-03-05T03:04:59.080Z,4.61
2023-03-05T03:07:26.013Z,4.59
2023-03-05T03:09:52.586Z,4.60
2023-03-05T03:12:19.390Z,4.60
2023-03-05T03:14:45.962Z,4.59
2023-03-05T03:17:17.829Z,4.59
2023-03-05T03:19:45.139Z,4.57
2023-03-05T03:22:13.739Z,4.54
2023-03-05T03:24:42.136Z,4.57
2023-03-05T03:27:09.110Z,4.58
2023-03-05T03:29:37.217Z,4.56
2023-03-05T03:32:04.015Z,4.55
2023-03-05T03:34:30.844Z,4.53
2023-03-05T03:36:57.379Z,4.58
2023-03-05T03:39:23.915Z,4.56
2023-03-05T03:41:52.784Z,4.60
2023-03-05T03:44:21.612Z,4.59
2023-03-05T03:46:50.482Z,4.58
2023-03-05T03:49:18.366Z,4.58
2023-03-05T03:51:45.337Z,4.55
2023-03-05T03:54:13.255Z,4.56
2023-03-05T03:56:40.015Z,4.54
2023-03-05T03:59:06.530Z,4.48
2023-03-05T04:01:33.292Z,4.46
2023-03-05T04:04:00.053Z,4.45
2023-03-05T04:06:27.037Z,4.44
2023-03-05T04:08:53.625Z,4.45
2023-03-05T04:11:20.456Z,4.45
2023-03-05T04:13:47.280Z,4.41
2023-03-05T04:16:14.861Z,4.38
2023-03-05T04:18:42.716Z,4.41
2023-03-05T04:21:09.700Z,4.41
2023-03-05T04:23:36.432Z,4.39
2023-03-05T04:26:03.622Z,4.36
2023-03-05T04:28:30.496Z,4.39
2023-03-05T04:30:57.275Z,4.35
2023-03-05T04:33:23.815Z,4.37
2023-03-05T04:35:50.698Z,4.36
2023-03-05T04:38:17.756Z,4.40
2023-03-05T04:40:45.642Z,4.40
2023-03-05T04:43:12.427Z,4.38
2023-03-05T04:45:40.824Z,4.39
2023-03-05T04:48:08.105Z,4.33
2023-03-05T04:50:34.691Z,4.33
2023-03-05T04:53:01.845Z,4.33
2023-03-05T04:55:28.703Z,4.33
2023-03-05T04:57:55.274Z,4.31
2023-03-05T05:00:22.149Z,4.33
2023-03-05T05:02:50.689Z,4.31
2023-03-05T05:05:23.390Z,4.32
2023-03-05T05:07:53.357Z,4.29
2023-03-05T05:10:19.989Z,4.24
2023-03-05T05:12:46.532Z,4.26
2023-03-05T05:15:13.378Z,4.25
2023-03-05T05:17:40.394Z,4.25
2023-03-05T05:20:08.807Z,4.23
2023-03-05T05:22:35.531Z,4.21
2023-03-05T05:25:02.199Z,4.16
2023-03-05T05:27:28.949Z,4.14
2023-03-05T05:29:55.998Z,4.18
2023-03-05T05:32:23.630Z,4.17
2023-03-05T05:34:58.375Z,4.16
2023-03-05T05:37:26.205Z,4.16
2023-03-05T05:39:52.984Z,4.11
2023-03-05T05:42:22.369Z,4.17
2023-03-05T05:44:49.657Z,4.10
2023-03-05T05:47:17.663Z,4.14
2023-03-05T05:49:44.314Z,4.11
2023-03-05T05:52:11.164Z,4.10
2023-03-05T05:54:38.543Z,4.09
2023-03-05T05:57:05.601Z,4.12
2023-03-05T05:59:32.163Z,4.13
2023-03-05T06:01:59.003Z,4.07
2023-03-05T06:04:25.790Z,4.07
2023-03-05T06:06:52.307Z,4.04
2023-03-05T06:09:18.818Z,4.07
2023-03-05T06:11:45.410Z,4.03
2023-03-05T06:14:12.857Z,4.05
2023-03-05T06:16:39.657Z,4.00
2023-03-05T06:19:06.640Z,4.01
2023-03-05T06:21:33.474Z,4.05
2023-03-05T06:24:00.651Z,4.06
2023-03-05T06:26:27.204Z,4.05
2023-03-05T06:28:54.181Z,4.04
2023-03-05T06:31:22.752Z,4.03
2023-03-05T06:33:50.112Z,4.01
2023-03-05T06:36:20.577Z,4.00
2023-03-05T06:38:48.978Z,3.99
2023-03-05T06:41:19.044Z,3.94
2023-03-05T06:43:47.185Z,3.98
2023-03-05T06:46:26.494Z,3.95
2023-03-05T06:48:55.913Z,3.98
2023-03-05T06:51:28.672Z,3.91
2023-03-05T06:53:56.599Z,3.93
2023-03-05T06:56:23.579Z,3.96
2023-03-05T06:58:51.813Z,3.97
2023-03-05T07:01:20.132Z,3.95
2023-03-05T07:03:50.725Z,3.94
2023-03-05T07:06:17.324Z,3.89
2023-03-05T07:08:44.236Z,3.91
2023-03-05T07:11:16.282Z,3.91
2023-03-05T07:13:43.065Z,3.91
2023-03-05T07:16:14.845Z,3.90
2023-03-05T07:18:41.676Z,3.92
2023-03-05T07:21:09.349Z,3.93
2023-03-05T07:23:36.618Z,3.94
2023-03-05T07:26:04.772Z,3.90
2023-03-05T07:28:31.614Z,3.95
2023-03-05T07:31:04.319Z,3.92
2023-03-05T07:33:31.373Z,3.90
2023-03-05T07:35:58.058Z,3.94
2023-03-05T07:38:24.719Z,3.94
2023-03-05T07:40:51.246Z,3.89
2023-03-05T07:43:18.313Z,3.93
2023-03-05T07:45:45.990Z,3.91
2023-03-05T07:48:15.812Z,3.93
2023-03-05T07:50:43.036Z,3.96
2023-03-05T07:53:10.527Z,3.98
2023-03-05T07:55:42.865Z,3.99
2023-03-05T07:58:09.861Z,4.00
2023-03-05T08:00:36.619Z,4.08
2023-03-05T08:03:03.639Z,4.10
2023-03-05T08:05:30.364Z,4.10
2023-03-05T08:07:56.921Z,4.14
2023-03-05T08:10:23.476Z,4.18
2023-03-05T08:12:49.962Z,4.16
2023-03-05T08:15:16.575Z,4.11
2023-03-05T08:17:43.441Z,4.17
2023-03-05T08:20:10.498Z,4.14
2023-03-05T08:22:37.852Z,4.18
2023-03-05T08:25:06.345Z,4.20
2023-03-05T08:27:33.165Z,4.17
2023-03-05T08:30:02.039Z,4.21
2023-03-05T08:32:29.293Z,4.27
2023-03-05T08:34:57.215Z,4.29
2023-03-05T08:37:24.118Z,4.26
2023-03-05T08:39:50.805Z,4.25
2023-03-05T08:42:20.381Z,4.29
2023-03-05T08:44:47.051Z,4.26
2023-03-05T08:47:13.698Z,4.26
2023-03-05T08:49:40.208Z,4.24
2023-03-05T08:52:06.865Z,4.29
2023-03-05T08:54:34.115Z,4.34
2023-03-05T08:57:00.614Z,4.37
2023-03-05T08:59:29.082Z,4.38
2023-03-05T09:01:56.278Z,4.42
2023-03-05T09:04:22.813Z,4.42
2023-03-05T09:06:49.340Z,4.46
2023-03-05T09:09:17.562Z,4.42
2023-03-05T09:11:44.063Z,4.45
2023-03-05T09:14:10.854Z,4.49
2023-03-05T09:16:37.563Z,4.57
2023-03-05T09:19:04.145Z,4.55
2023-03-05T09:21:30.972Z,4.70
2023-03-05T09:23:57.437Z,4.78
2023-03-05T09:26:23.948Z,4.76
2023-03-05T09:28:50.519Z,4.88
2023-03-05T09:31:17.913Z,4.85
2023-03-05T09:33:44.789Z,4.90
2023-03-05T09:36:26.908Z,4.93
2023-03-05T09:38:54.119Z,4.97
2023-03-05T09:41:35.798Z,5.03
2023-03-05T09:44:05.454Z,5.09
2023-03-05T09:46:36.119Z,5.10
2023-03-05T09:49:15.978Z,5.12
2023-03-05T09:51:45.452Z,5.15
2023-03-05T09:54:39.737Z,5.15
2023-03-05T09:57:15.041Z,5.20
2023-03-05T09:59:48.709Z,5.28
2023-03-05T10:02:24.323Z,5.30
2023-03-05T10:04:57.757Z,5.36
2023-03-05T10:07:29.934Z,5.44
2023-03-05T10:10:03.518Z,5.46
2023-03-05T10:12:59.941Z,5.44
2023-03-05T10:16:06.299Z,5.53
2023-03-05T10:18:51.555Z,5.55
2023-03-05T10:21:30.861Z,5.64
2023-03-05T10:24:35.436Z,5.71
2023-03-05T10:27:14.069Z,5.82
2023-03-05T10:30:03.063Z,5.89
2023-03-05T10:32:44.679Z,5.94
2023-03-05T10:35:17.250Z,5.99
2023-03-05T10:37:49.866Z,6.02
2023-03-05T10:40:37.513Z,6.10
2023-03-05T10:43:18.198Z,6.27
2023-03-05T10:45:48.652Z,6.39
2023-03-05T10:48:35.274Z,6.45
2023-03-05T10:51:13.533Z,6.41
2023-03-05T10:53:54.688Z,6.37
2023-03-05T10:56:23.809Z,6.29
2023-03-05T10:58:50.582Z,6.31
2023-03-05T11:01:27.478Z,6.36
2023-03-05T11:04:05.725Z,6.37
2023-03-05T11:06:41.279Z,6.39
2023-03-05T11:09:17.342Z,6.42
2023-03-05T11:11:45.369Z,6.48
2023-03-05T11:14:25.362Z,6.57
2023-03-05T11:16:52.360Z,6.61
2023-03-05T11:19:33.474Z,6.68
2023-03-05T11:22:19.433Z,6.74
2023-03-05T11:25:04.225Z,6.78
2023-03-05T11:27:38.007Z,6.89
2023-03-05T11:30:19.315Z,6.94
2023-03-05T11:32:46.314Z,6.97
2023-03-05T11:35:34.041Z,7.08
2023-03-05T11:38:03.538Z,7.14
2023-03-05T11:40:32.455Z,7.18
2023-03-05T11:43:00.481Z,7.20
2023-03-05T11:45:29.091Z,7.15
2023-03-05T11:48:01.329Z,7.08
2023-03-05T11:50:33.501Z,7.07
2023-03-05T11:53:14.773Z,6.99
2023-03-05T11:55:48.381Z,6.95
2023-03-05T11:58:28.417Z,6.87
2023-03-05T12:00:55.726Z,6.91
2023-03-05T12:03:35.530Z,6.89
2023-03-05T12:06:29.553Z,6.85
2023-03-05T12:09:00.546Z,6.88
2023-03-05T12:11:30.785Z,6.89
2023-03-05T12:14:10.875Z,6.89
2023-03-05T12:16:48.487Z,6.93
2023-03-05T12:19:28.217Z,6.95
2023-03-05T12:21:54.992Z,7.00
2023-03-05T12:24:27.745Z,6.99
2023-03-05T12:26:56.749Z,6.96
2023-03-05T12:29:27.922Z,6.94
2023-03-05T12:31:54.518Z,6.93
2023-03-05T12:34:40.492Z,6.94
2023-03-05T12:37:22.550Z,6.95
2023-03-05T12:40:01.901Z,6.96
2023-03-05T12:42:28.614Z,6.96
2023-03-05T12:45:10.464Z,6.97
2023-03-05T12:47:44.724Z,7.01
2023-03-05T12:50:26.513Z,7.04
2023-03-05T12:52:53.752Z,7.06
2023-03-05T12:55:24.390Z,7.04
2023-03-05T12:58:01.460Z,6.94
2023-03-05T13:00:43.043Z,6.94
2023-03-05T13:03:14.514Z,6.94
2023-03-05T13:05:49.642Z,6.97
2023-03-05T13:08:19.093Z,6.98
2023-03-05T13:10:55.403Z,6.93
2023-03-05T13:13:22.675Z,6.93
2023-03-05T13:15:50.669Z,6.90
2023-03-05T13:18:21.504Z,6.93
2023-03-05T13:20:48.550Z,6.93
2023-03-05T13:23:25.537Z,6.90
2023-03-05T13:26:20.143Z,6.85
2023-03-05T13:29:05.509Z,6.87
2023-03-05T13:31:35.513Z,6.83
2023-03-05T13:34:15.495Z,6.77
2023-03-05T13:36:47.308Z,6.79
2023-03-05T13:39:21.144Z,6.80
2023-03-05T13:42:04.540Z,6.80
2023-03-05T13:44:32.800Z,6.77
2023-03-05T13:47:21.429Z,6.75
2023-03-05T13:49:56.271Z,6.69
2023-03-05T13:52:29.703Z,6.69
2023-03-05T13:54:58.634Z,6.70
2023-03-05T13:57:52.441Z,6.65
2023-03-05T14:00:35.422Z,6.60
2023-03-05T14:03:23.274Z,6.52
2023-03-05T14:05:50.026Z,6.52
2023-03-05T14:08:21.815Z,6.50
2023-03-05T14:10:49.853Z,6.47
2023-03-05T14:13:22.392Z,6.43
2023-03-05T14:16:09.489Z,6.38
2023-03-05T14:18:37.209Z,6.33
2023-03-05T14:21:08.127Z,6.34
2023-03-05T14:23:48.991Z,6.32
2023-03-05T14:26:36.547Z,6.31
2023-03-05T14:29:08.994Z,6.34
2023-03-05T14:31:58.745Z,6.30
2023-03-05T14:34:32.850Z,6.30
2023-03-05T14:37:02.386Z,6.29
2023-03-05T14:39:37.286Z,6.31
2023-03-05T14:42:15.564Z,6.26
2023-03-05T14:44:42.064Z,6.29
2023-03-05T14:47:08.781Z,6.23
2023-03-05T14:49:35.361Z,6.27
2023-03-05T14:52:02.837Z,6.30
2023-03-05T14:54:36.199Z,6.32
2023-03-05T14:57:05.011Z,6.33
2023-03-05T14:59:34.061Z,6.31
2023-03-05T15:02:00.612Z,6.33
2023-03-05T15:04:30.069Z,6.35
2023-03-05T15:06:56.837Z,6.40
2023-03-05T15:09:25.616Z,6.40
2023-03-05T15:11:52.568Z,6.41
2023-03-05T15:14:19.118Z,6.49
2023-03-05T15:16:46.581Z,6.50
2023-03-05T15:19:13.475Z,6.46
2023-03-05T15:21:40.721Z,6.49
2023-03-05T15:24:07.762Z,6.52
2023-03-05T15:26:35.258Z,6.48
2023-03-05T15:29:01.994Z,6.48
2023-03-05T15:31:28.656Z,6.50
2023-03-05T15:33:55.527Z,6.52
2023-03-05T15:36:22.134Z,6.51
2023-03-05T15:38:48.896Z,6.45
2023-03-05T15:41:15.585Z,6.41
2023-03-05T15:43:42.201Z,6.40
2023-03-05T15:46:08.928Z,6.38
2023-03-05T15:48:35.696Z,6.46
2023-03-05T15:51:09.280Z,6.42
2023-03-05T15:53:35.922Z,6.40
2023-03-05T15:56:02.432Z,6.41
2023-03-05T15:58:28.922Z,6.44
2023-03-05T16:00:55.472Z,6.39
2023-03-05T16:03:22.088Z,6.27
2023-03-05T16:05:49.077Z,6.28
2023-03-05T16:08:15.644Z,6.31
2023-03-05T16:10:42.334Z,6.25
2023-03-05T16:13:12.276Z,6.25
2023-03-05T16:15:40.675Z,6.19
2023-03-05T16:18:12.036Z,6.14
2023-03-05T16:20:38.578Z,6.11
2023-03-05T16:23:05.634Z,6.05
2023-03-05T16:25:32.585Z,6.05
2023-03-05T16:27:59.682Z,6.03
2023-03-05T16:30:26.406Z,6.00
2023-03-05T16:32:53.795Z,5.97
2023-03-05T16:35:20.770Z,5.98
2023-03-05T16:37:47.474Z,5.90
2023-03-05T16:40:14.754Z,5.94
2023-03-05T16:42:41.305Z,5.91
2023-03-05T16:45:08.884Z,5.86
2023-03-05T16:47:35.879Z,5.89
2023-03-05T16:50:03.445Z,5.88
2023-03-05T16:52:30.618Z,5.86
2023-03-05T16:54:57.287Z,5.76
2023-03-05T16:57:23.859Z,5.86
2023-03-05T16:59:50.461Z,5.81
2023-03-05T17:02:17.465Z,5.75
2023-03-05T17:04:44.618Z,5.78
2023-03-05T17:07:11.252Z,5.70
2023-03-05T17:09:38.014Z,5.73
2023-03-05T17:12:04.681Z,5.76
2023-03-05T17:14:31.250Z,5.72
2023-03-05T17:16:58.069Z,5.70
2023-03-05T17:19:24.572Z,5.64
2023-03-05T17:21:51.073Z,5.55
2023-03-05T17:24:18.542Z,5.55
2023-03-05T17:26:45.992Z,5.50
2023-03-05T17:29:12.615Z,5.52
2023-03-05T17:31:39.329Z,5.52
2023-03-05T17:34:05.829Z,5.46
2023-03-05T17:36:32.330Z,5.46
2023-03-05T17:38:58.932Z,5.41
2023-03-05T17:41:25.398Z,5.41
2023-03-05T17:43:51.933Z,5.39
2023-03-05T17:46:18.538Z,5.37
2023-03-05T17:48:45.162Z,5.34
2023-03-05T17:51:13.815Z,5.29
2023-03-05T17:53:40.647Z,5.27
2023-03-05T17:56:12.417Z,5.26
2023-03-05T17:58:39.427Z,5.20
2023-03-05T18:01:07.287Z,5.24
2023-03-05T18:03:34.768Z,5.18
2023-03-05T18:06:01.524Z,5.21
2023-03-05T18:08:28.063Z,5.17
2023-03-05T18:10:54.918Z,5.18
2023-03-05T18:13:21.484Z,5.18
2023-03-05T18:15:48.035Z,5.19
2023-03-05T18:18:16.661Z,5.17
2023-03-05T18:20:43.807Z,5.15
2023-03-05T18:23:10.800Z,5.16
2023-03-05T18:25:37.352Z,5.17
2023-03-05T18:28:07.077Z,5.17
2023-03-05T18:30:34.260Z,5.16
2023-03-05T18:33:01.043Z,5.18
2023-03-05T18:35:28.397Z,5.16
2023-03-05T18:37:55.455Z,5.15
2023-03-05T18:40:25.309Z,5.15
2023-03-05T18:42:52.405Z,5.12
2023-03-05T18:45:21.392Z,5.13
2023-03-05T18:47:48.179Z,5.16
2023-03-05T18:50:17.432Z,5.13
2023-03-05T18:52:45.275Z,5.12
2023-03-05T18:55:21.622Z,5.05
2023-03-05T18:57:48.195Z,5.06
2023-03-05T19:00:27.539Z,5.08
2023-03-05T19:02:55.234Z,5.00
2023-03-05T19:05:22.336Z,5.03
2023-03-05T19:07:49.174Z,5.02
2023-03-05T19:10:16.745Z,5.03
2023-03-05T19:12:44.030Z,5.03
2023-03-05T19:15:13.085Z,4.95
2023-03-05T19:17:39.851Z,4.97
2023-03-05T19:20:07.494Z,4.93
2023-03-05T19:22:34.179Z,4.97
2023-03-05T19:25:00.684Z,4.96
2023-03-05T19:27:27.720Z,4.91
2023-03-05T19:29:54.823Z,4.86
2023-03-05T19:32:21.703Z,4.89
2023-03-05T19:34:48.739Z,4.86
2023-03-05T19:37:15.755Z,4.90
2023-03-05T19:39:42.439Z,4.87
2023-03-05T19:42:09.138Z,4.87
2023-03-05T19:44:35.847Z,4.88
2023-03-05T19:47:02.474Z,4.85
2023-03-05T19:49:29.288Z,4.84
2023-03-05T19:51:55.774Z,4.80
2023-03-05T19:54:23.283Z,4.74
2023-03-05T19:56:52.347Z,4.81
2023-03-05T19:59:20.708Z,4.81
2023-03-05T20:01:48.616Z,4.82
2023-03-05T20:04:21.261Z,4.78
2023-03-05T20:06:48.013Z,4.76
2023-03-05T20:09:15.332Z,4.79
2023-03-05T20:11:42.349Z,4.78
2023-03-05T20:14:09.865Z,4.77
2023-03-05T20:16:37.573Z,4.71
2023-03-05T20:19:05.865Z,4.74
2023-03-05T20:21:35.360Z,4.66
2023-03-05T20:24:04.683Z,4.69
2023-03-05T20:26:34.373Z,4.72
2023-03-05T20:29:00.881Z,4.66
2023-03-05T20:31:27.943Z,4.64
2023-03-05T20:33:55.867Z,4.70
2023-03-05T20:36:23.484Z,4.68
2023-03-05T20:38:50.254Z,4.64
2023-03-05T20:41:18.942Z,4.66
2023-03-05T20:43:47.806Z,4.62
2023-03-05T20:46:32.878Z,4.64
2023-03-05T20:49:01.947Z,4.62
2023-03-05T20:51:33.041Z,4.57
2023-03-05T20:54:04.126Z,4.61
2023-03-05T20:56:32.524Z,4.55
2023-03-05T20:59:00.504Z,4.60
2023-03-05T21:01:27.959Z,4.56
2023-03-05T21:03:56.326Z,4.59
2023-03-05T21:06:23.608Z,4.54
2023-03-05T21:08:50.266Z,4.48
2023-03-05T21:11:17.074Z,4.58
2023-03-05T21:13:44.375Z,4.55
2023-03-05T21:16:16.214Z,4.55
2023-03-05T21:18:42.750Z,4.52
2023-03-05T21:21:09.291Z,4.44
2023-03-05T21:23:35.783Z,4.52
2023-03-05T21:26:02.761Z,4.42
2023-03-05T21:28:29.785Z,4.47
2023-03-05T21:30:56.681Z,4.49
2023-03-05T21:33:30.026Z,4.48
2023-03-05T21:35:57.212Z,4.49
2023-03-05T21:38:25.181Z,4.46
2023-03-05T21:40:53.470Z,4.48
2023-03-05T21:43:22.756Z,4.49
2023-03-05T21:45:51.037Z,4.48
2023-03-05T21:48:17.774Z,4.43
2023-03-05T21:50:45.219Z,4.38
2023-03-05T21:53:12.981Z,4.45
2023-03-05T21:55:40.339Z,4.43
2023-03-05T21:58:06.830Z,4.41
2023-03-05T22:00:33.394Z,4.38
2023-03-05T22:02:59.857Z,4.36
2023-03-05T22:05:26.387Z,4.36
2023-03-05T22:07:52.903Z,4.34
2023-03-05T22:10:20.240Z,4.34
2023-03-05T22:12:59.809Z,4.33
2023-03-05T22:15:26.373Z,4.28
2023-03-05T22:17:52.822Z,4.23
2023-03-05T22:20:19.337Z,4.20
2023-03-05T22:22:46.222Z,4.19
2023-03-05T22:25:14.974Z,4.26
2023-03-05T22:27:42.650Z,4.22
2023-03-05T22:30:11.540Z,4.18
2023-03-05T22:32:38.498Z,4.19
2023-03-05T22:35:06.347Z,4.22
2023-03-05T22:37:33.135Z,4.19
2023-03-05T22:39:59.620Z,4.19
2023-03-05T22:42:26.265Z,4.12
2023-03-05T22:44:57.264Z,4.16
2023-03-05T22:47:25.298Z,4.14
2023-03-05T22:49:51.816Z,4.11
2023-03-05T22:52:18.471Z,4.06
2023-03-05T22:54:44.989Z,4.07
2023-03-05T22:57:11.811Z,4.08
2023-03-05T22:59:38.283Z,4.01
2023-03-05T23:02:05.008Z,4.02
2023-03-05T23:04:35.117Z,4.01
2023-03-05T23:07:01.611Z,4.02
2023-03-05T23:09:28.139Z,3.97
2023-03-05T23:11:54.727Z,3.96
2023-03-05T23:14:21.274Z,3.97
2023-03-05T23:16:47.771Z,4.01
2023-03-05T23:19:14.277Z,3.99
2023-03-05T23:21:43.874Z,3.98
2023-03-05T23:24:10.358Z,3.93
2023-03-05T23:26:36.861Z,3.93
2023-03-05T23:29:03.344Z,3.95
2023-03-05T23:31:29.821Z,3.89
2023-03-05T23:33:56.340Z,3.86
2023-03-05T23:36:26.116Z,3.90
2023-03-05T23:38:52.625Z,3.84
2023-03-05T23:41:19.071Z,3.82
2023-03-05T23:43:45.586Z,3.80
2023-03-05T23:46:12.344Z,3.79
2023-03-05T23:48:38.940Z,3.78
2023-03-05T23:51:10.092Z,3.77
2023-03-05T23:53:37.213Z,3.77
2023-03-05T23:56:09.099Z,3.72
2023-03-05T23:58:37.505Z,3.71
